Time;durP1;ratioP1;P1;durP2;ratioP2;P2;SDS_P1;SDS_P2;PMS_P1;PMS_P2;Temp;Humidity;BMP_temperature;BMP_pressure;BME280_temperature;BME280_humidity;BME280_pressure;Samples;Min_cycle;Max_cycle;Signal;HPM_P1;HPM_P2
2023/02/22 00:02:24;;;;;;;7.7;4.5;;;;;;;3.43;70.45605;936.7536;;;;
2023/02/22 00:04:46;;;;;;;6.8;4.2;;;;;;;3.57;69.75;936.7338;;;;
2023/02/22 00:07:20;;;;;;;7.9;4.2;;;;;;;3.77;68.65723;936.6404;;;;
2023/02/22 00:09:43;;;;;;;6.8;4.2;;;;;;;3.59;69.49316;936.7012;;;;
2023/02/22 00:12:09;;;;;;;6.9;4.1;;;;;;;3.36;70.77051;936.6572;;;;
2023/02/22 00:14:36;;;;;;;5.4;3.1;;;;;;;3.2;71.82227;936.6563;;;;
2023/02/22 00:17:02;;;;;;;6.4;3.6;;;;;;;3.08;72.11523;936.671;;;;
2023/02/22 00:19:29;;;;;;;5.7;3.3;;;;;;;3.04;72.52344;936.6806;;;;
2023/02/22 00:21:56;;;;;;;5.3;3.1;;;;;;;3.11;72.27832;936.6147;;;;
2023/02/22 00:24:24;;;;;;;7.6;3.8;;;;;;;3.13;72.14844;936.6005;;;;
2023/02/22 00:26:49;;;;;;;6.6;3.3;;;;;;;3.13;72.31348;936.4863;;;;
2023/02/22 00:29:35;;;;;;;10.4;3.5;;;;;;;3.1;72.52344;936.5892;;;;
2023/02/22 00:32:11;;;;;;;5.9;2.9;;;;;;;3.14;72.0918;936.5542;;;;
2023/02/22 00:34:36;;;;;;;5.5;2.8;;;;;;;3.03;72.39941;936.5845;;;;
2023/02/22 00:37:04;;;;;;;5.1;2.5;;;;;;;2.97;72.63477;936.6024;;;;
2023/02/22 00:39:29;;;;;;;5;2.9;;;;;;;2.94;72.92188;936.5613;;;;
2023/02/22 00:45:02;;;;;;;4.8;2.7;;;;;;;2.88;72.81055;936.5859;;;;
2023/02/22 00:47:31;;;;;;;6.9;3;;;;;;;2.9;72.9707;936.5347;;;;
2023/02/22 00:50:01;;;;;;;4.2;2.6;;;;;;;3.03;72.29688;936.4686;;;;
2023/02/22 00:52:26;;;;;;;4.8;2.2;;;;;;;3.14;71.7998;936.4638;;;;
2023/02/22 00:54:51;;;;;;;5.3;2.8;;;;;;;3.16;71.53516;936.3898;;;;
2023/02/22 00:57:27;;;;;;;5.2;2.4;;;;;;;3.15;71.59961;936.4186;;;;
2023/02/22 00:59:53;;;;;;;7.1;2.8;;;;;;;3.04;72.0752;936.4053;;;;
2023/02/22 01:02:23;;;;;;;4.2;2.7;;;;;;;3.08;71.86914;936.3691;;;;
2023/02/22 01:04:52;;;;;;;4.8;2.2;;;;;;;3.09;71.59082;936.3538;;;;
2023/02/22 01:07:17;;;;;;;6.2;2.9;;;;;;;2.95;72.13672;936.4256;;;;
2023/02/22 01:09:43;;;;;;;5.3;2.3;;;;;;;2.95;72.22852;936.3564;;;;
2023/02/22 01:12:09;;;;;;;5.4;2.5;;;;;;;2.95;72.19434;936.285;;;;
2023/02/22 01:14:34;;;;;;;5.7;2.6;;;;;;;2.94;72.18164;936.2255;;;;
2023/02/22 01:17:01;;;;;;;3.7;2.5;;;;;;;2.82;72.76563;936.1749;;;;
2023/02/22 01:19:31;;;;;;;4.2;2.4;;;;;;;2.76;72.8125;936.2402;;;;
2023/02/22 01:21:56;;;;;;;2.6;1.6;;;;;;;2.75;72.59961;936.1976;;;;
2023/02/22 01:24:25;;;;;;;2.8;2;;;;;;;2.81;72.16992;936.209;;;;
2023/02/22 01:26:54;;;;;;;5.9;2.3;;;;;;;2.85;72.02051;936.1085;;;;
2023/02/22 01:29:19;;;;;;;4.4;1.9;;;;;;;2.94;71.63184;936.0392;;;;
2023/02/22 01:31:44;;;;;;;3.2;1.9;;;;;;;2.8;71.86523;936.0591;;;;
2023/02/22 01:34:14;;;;;;;2.4;1.8;;;;;;;2.74;72.27148;936.0736;;;;
2023/02/22 01:36:40;;;;;;;3.9;2;;;;;;;2.77;72.26465;936.0072;;;;
2023/02/22 01:39:04;;;;;;;6.2;2.3;;;;;;;2.76;72.44238;935.9164;;;;
2023/02/22 01:41:29;;;;;;;3.4;2.4;;;;;;;2.75;72.7793;935.9272;;;;
2023/02/22 01:43:55;;;;;;;4.1;2.5;;;;;;;2.79;72.54785;935.9047;;;;
2023/02/22 01:46:20;;;;;;;4;2.3;;;;;;;2.8;72.39258;935.8358;;;;
2023/02/22 01:48:45;;;;;;;3.7;2.1;;;;;;;2.77;72.36523;935.8254;;;;
2023/02/22 01:51:14;;;;;;;5.3;2.2;;;;;;;2.77;72.10742;935.758;;;;
2023/02/22 01:53:39;;;;;;;4.2;2.1;;;;;;;2.78;72.06445;935.7338;;;;
2023/02/22 01:56:06;;;;;;;3.5;2.3;;;;;;;2.66;72.67188;935.7635;;;;
2023/02/22 01:58:32;;;;;;;2.9;2;;;;;;;2.6;72.87598;935.7709;;;;
2023/02/22 02:00:57;;;;;;;4.4;2.1;;;;;;;2.48;73.64941;935.7231;;;;
2023/02/22 02:03:22;;;;;;;3.3;1.9;;;;;;;2.38;73.82324;935.6783;;;;
2023/02/22 02:05:50;;;;;;;2.7;1.9;;;;;;;2.31;73.83301;935.6824;;;;
2023/02/22 02:08:15;;;;;;;6.8;4;;;;;;;2.34;74.00684;935.6544;;;;
2023/02/22 02:10:43;;;;;;;2.4;1.9;;;;;;;2.34;74.19629;935.7366;;;;
2023/02/22 02:13:09;;;;;;;4;2.3;;;;;;;2.28;74.34277;935.7378;;;;
2023/02/22 02:15:39;;;;;;;4.4;3.6;;;;;;;2.36;73.81934;935.7212;;;;
2023/02/22 02:26:31;;;;;;;4.6;2.3;;;;;;;2.64;72.21875;935.6189;;;;
2023/02/22 02:28:52;;;;;;;4.3;2.3;;;;;;;2.69;71.96094;935.6106;;;;
2023/02/22 02:31:17;;;;;;;5.1;2.3;;;;;;;2.74;71.66602;935.6892;;;;
2023/02/22 02:33:43;;;;;;;5;2.1;;;;;;;2.69;71.64551;935.553;;;;
2023/02/22 02:36:08;;;;;;;3.5;2;;;;;;;2.66;71.68555;935.6039;;;;
2023/02/22 02:38:39;;;;;;;5;2.1;;;;;;;2.6;71.97949;935.5588;;;;
2023/02/22 02:41:05;;;;;;;2.1;1.7;;;;;;;2.59;71.8418;935.5557;;;;
2023/02/22 02:43:30;;;;;;;3;1.7;;;;;;;2.67;71.53223;935.6116;;;;
2023/02/22 02:45:55;;;;;;;3.6;1.8;;;;;;;2.64;71.49219;935.5421;;;;
2023/02/22 02:48:20;;;;;;;4;2;;;;;;;2.62;71.54492;935.5256;;;;
2023/02/22 02:50:46;;;;;;;3.1;1.9;;;;;;;2.64;71.33398;935.5192;;;;
2023/02/22 02:53:11;;;;;;;5.3;2.2;;;;;;;2.6;71.66406;935.5048;;;;
2023/02/22 02:55:37;;;;;;;2.7;1.7;;;;;;;2.57;71.50195;935.375;;;;
2023/02/22 02:58:03;;;;;;;4.7;2.3;;;;;;;2.57;71.60352;935.5408;;;;
2023/02/22 03:00:27;;;;;;;3.8;2.1;;;;;;;2.54;71.97852;935.4408;;;;
2023/02/22 03:02:57;;;;;;;3.8;2.4;;;;;;;2.48;72.27148;935.5188;;;;
2023/02/22 03:05:24;;;;;;;4;2;;;;;;;2.52;72.05469;935.4975;;;;
2023/02/22 03:07:50;;;;;;;4.4;1.9;;;;;;;2.51;72.00879;935.4871;;;;
2023/02/22 03:10:17;;;;;;;1.9;1.6;;;;;;;2.48;72.23828;935.5037;;;;
2023/02/22 03:12:42;;;;;;;3.2;1.5;;;;;;;2.38;72.53418;935.4883;;;;
2023/02/22 03:15:50;;;;;;;2.8;1.8;;;;;;;2.37;72.42285;935.5078;;;;
2023/02/22 03:18:21;;;;;;;4.8;1.8;;;;;;;2.49;71.83594;935.4815;;;;
2023/02/22 03:20:45;;;;;;;1.8;1.6;;;;;;;2.45;71.95313;935.4511;;;;
2023/02/22 03:23:11;;;;;;;2.8;1.5;;;;;;;2.45;71.83008;935.4031;;;;
2023/02/22 03:25:37;;;;;;;2.9;1.5;;;;;;;2.4;72.1582;935.4059;;;;
2023/02/22 03:28:02;;;;;;;3.3;1.9;;;;;;;2.23;72.91113;935.3755;;;;
2023/02/22 03:30:27;;;;;;;3.5;1.9;;;;;;;2.21;72.9082;935.4314;;;;
2023/02/22 03:32:55;;;;;;;4.6;1.6;;;;;;;2.27;72.72852;935.3839;;;;
2023/02/22 03:35:20;;;;;;;3;1.9;;;;;;;2.4;72.0459;935.4169;;;;
2023/02/22 03:37:45;;;;;;;3.6;1.9;;;;;;;2.41;71.89063;935.4356;;;;
2023/02/22 03:40:15;;;;;;;3;2.6;;;;;;;2.32;72.18945;935.4519;;;;
2023/02/22 03:42:40;;;;;;;2.9;1.9;;;;;;;2.27;72.28125;935.4122;;;;
2023/02/22 03:45:05;;;;;;;3.4;2;;;;;;;2.38;71.99707;935.3463;;;;
2023/02/22 03:47:30;;;;;;;3.1;2.4;;;;;;;2.41;71.58691;935.4302;;;;
2023/02/22 03:49:57;;;;;;;3.5;1.9;;;;;;;2.3;71.88281;935.4391;;;;
2023/02/22 03:52:24;;;;;;;2.8;1.8;;;;;;;2.27;71.99121;935.3716;;;;
2023/02/22 03:54:48;;;;;;;4.5;1.9;;;;;;;2.23;71.97266;935.3953;;;;
2023/02/22 03:57:16;;;;;;;2.8;1.7;;;;;;;2.21;71.84473;935.4016;;;;
2023/02/22 03:59:43;;;;;;;5.3;1.9;;;;;;;2.2;71.81152;935.3506;;;;
2023/02/22 04:02:35;;;;;;;2.9;1.6;;;;;;;2.15;72.05957;935.3149;;;;
2023/02/22 04:05:07;;;;;;;3.5;1.9;;;;;;;2.19;72.1875;935.3422;;;;
2023/02/22 04:09:57;;;;;;;9.5;3.1;;;;;;;2.1;73.02441;935.3649;;;;
2023/02/22 04:12:23;;;;;;;5.9;2.6;;;;;;;2.21;72.5166;935.4047;;;;
2023/02/22 04:14:50;;;;;;;4.9;2.6;;;;;;;2.35;71.84668;935.368;;;;
2023/02/22 04:17:20;;;;;;;25.4;23;;;;;;;2.19;72.40137;935.446;;;;
2023/02/22 04:19:48;;;;;;;7.3;6.6;;;;;;;2.15;72.66406;935.4186;;;;
2023/02/22 04:22:13;;;;;;;5.7;5.1;;;;;;;2.24;72.46484;935.3907;;;;
2023/02/22 04:24:43;;;;;;;5.4;2.4;;;;;;;2.23;72.26172;935.3002;;;;
2023/02/22 04:27:08;;;;;;;6.2;3.3;;;;;;;2.2;72.24805;935.3663;;;;
2023/02/22 04:29:34;;;;;;;8.9;4;;;;;;;2.15;72.33887;935.3488;;;;
2023/02/22 04:31:59;;;;;;;24.7;12.7;;;;;;;1.99;72.82813;935.3437;;;;
2023/02/22 04:34:27;;;;;;;22.7;13.3;;;;;;;1.98;73.01465;935.3182;;;;
2023/02/22 04:36:52;;;;;;;28.4;13.8;;;;;;;2.02;72.85547;935.2617;;;;
2023/02/22 04:39:19;;;;;;;27.4;15.4;;;;;;;2.09;72.4502;935.275;;;;
2023/02/22 04:41:46;;;;;;;27.4;15;;;;;;;2.13;72.12207;935.257;;;;
2023/02/22 04:44:14;;;;;;;17.8;8.4;;;;;;;2.16;72.0498;935.2847;;;;
2023/02/22 04:46:39;;;;;;;9.1;4.7;;;;;;;2.1;72.25195;935.2292;;;;
2023/02/22 04:49:05;;;;;;;11.3;5.3;;;;;;;1.99;72.88379;935.1804;;;;
2023/02/22 04:51:30;;;;;;;14.1;6.9;;;;;;;1.87;73.44434;935.1524;;;;
2023/02/22 04:53:59;;;;;;;14.3;7;;;;;;;1.86;73.46289;935.1415;;;;
2023/02/22 04:56:25;;;;;;;14.4;6.2;;;;;;;1.77;73.80664;935.0919;;;;
2023/02/22 04:58:51;;;;;;;13.4;7.2;;;;;;;1.7;74.1416;935.0751;;;;
2023/02/22 05:01:17;;;;;;;13;5.7;;;;;;;1.71;74.14258;935.1006;;;;
2023/02/22 05:03:42;;;;;;;8;4.5;;;;;;;1.78;73.6748;935.0036;;;;
2023/02/22 05:06:11;;;;;;;11.8;4.4;;;;;;;1.65;74.15527;935.0546;;;;
2023/02/22 05:08:34;;;;;;;11.7;5;;;;;;;1.62;74.78711;935.0477;;;;
2023/02/22 05:11:02;;;;;;;11.5;4.7;;;;;;;1.56;74.6875;935.0226;;;;
2023/02/22 05:13:27;;;;;;;11.7;5.2;;;;;;;1.6;74.5918;935.0428;;;;
2023/02/22 05:15:56;;;;;;;9.6;5.2;;;;;;;1.67;74.16895;935.0316;;;;
2023/02/22 05:18:27;;;;;;;10.4;5.6;;;;;;;1.7;73.62695;935.0234;;;;
2023/02/22 05:20:56;;;;;;;6.9;4.5;;;;;;;1.64;73.92871;934.9991;;;;
2023/02/22 05:23:21;;;;;;;6.1;3.4;;;;;;;1.66;73.9541;934.9889;;;;
2023/02/22 05:25:46;;;;;;;4.1;2.6;;;;;;;1.66;73.84277;934.8508;;;;
2023/02/22 05:28:11;;;;;;;7.5;2.9;;;;;;;1.63;73.90527;934.9768;;;;
2023/02/22 05:30:41;;;;;;;4.9;2.7;;;;;;;1.7;73.61426;934.9722;;;;
2023/02/22 05:33:06;;;;;;;8.1;3.3;;;;;;;1.74;73.36621;934.9817;;;;
2023/02/22 05:35:37;;;;;;;12.9;5.3;;;;;;;1.72;73.70801;934.9606;;;;
2023/02/22 05:38:04;;;;;;;13.1;5.3;;;;;;;1.71;73.67285;934.9255;;;;
2023/02/22 05:40:29;;;;;;;10.2;5.4;;;;;;;1.68;73.70215;934.9568;;;;
2023/02/22 05:46:50;;;;;;;20.7;8.8;;;;;;;1.64;73.77246;934.9238;;;;
2023/02/22 05:49:00;;;;;;;19.3;9.8;;;;;;;1.62;73.93652;934.9169;;;;
2023/02/22 05:51:25;;;;;;;12.5;6;;;;;;;1.62;73.87012;934.9033;;;;
2023/02/22 05:53:52;;;;;;;11.3;5.9;;;;;;;1.59;74.01074;934.931;;;;
2023/02/22 05:56:17;;;;;;;7.4;4.4;;;;;;;1.5;74.18359;934.9716;;;;
2023/02/22 05:58:45;;;;;;;9.1;4.3;;;;;;;1.38;74.79004;934.9702;;;;
2023/02/22 06:01:11;;;;;;;8.8;4.4;;;;;;;1.34;75.0166;934.9819;;;;
2023/02/22 06:03:36;;;;;;;8.2;3.7;;;;;;;1.3;75.1875;934.981;;;;
2023/02/22 06:06:03;;;;;;;9.2;3.7;;;;;;;1.39;74.7793;934.9029;;;;
2023/02/22 06:08:27;;;;;;;8.1;3.6;;;;;;;1.46;74.60352;934.9428;;;;
2023/02/22 06:10:55;;;;;;;9.5;3.6;;;;;;;1.53;74.24512;934.9422;;;;
2023/02/22 06:13:20;;;;;;;9.1;3.5;;;;;;;1.57;73.89355;934.9717;;;;
2023/02/22 06:15:51;;;;;;;6.7;3;;;;;;;1.6;73.77539;934.9501;;;;
2023/02/22 06:18:16;;;;;;;7.8;3.2;;;;;;;1.67;73.26465;934.9501;;;;
2023/02/22 06:20:43;;;;;;;22.4;10.8;;;;;;;1.67;73.75586;934.9785;;;;
2023/02/22 06:23:08;;;;;;;15.3;7.6;;;;;;;1.72;73.50684;934.9989;;;;
2023/02/22 06:25:34;;;;;;;15.9;8;;;;;;;1.75;73.60059;934.912;;;;
2023/02/22 06:27:59;;;;;;;11.6;6.6;;;;;;;1.78;74.88281;934.9723;;;;
2023/02/22 06:30:28;;;;;;;15.8;6.5;;;;;;;1.83;74.70215;935.0199;;;;
2023/02/22 06:32:53;;;;;;;13.6;5.8;;;;;;;1.93;73.73438;934.9835;;;;
2023/02/22 06:35:24;;;;;;;10.6;5.3;;;;;;;1.98;73.16016;935.0708;;;;
2023/02/22 06:37:53;;;;;;;11.9;6.1;;;;;;;2.08;72.15723;935.0658;;;;
2023/02/22 06:40:18;;;;;;;10.9;5.3;;;;;;;2.02;72.44043;935.0773;;;;
2023/02/22 06:42:48;;;;;;;11.8;5.8;;;;;;;2.03;72.53027;935.1012;;;;
2023/02/22 06:45:16;;;;;;;12.2;5.4;;;;;;;2.21;72.00098;935.0849;;;;
2023/02/22 06:47:42;;;;;;;8.8;4.5;;;;;;;2.25;71.52734;935.1256;;;;
2023/02/22 06:50:08;;;;;;;9.7;4.7;;;;;;;2.4;71.21582;935.1725;;;;
2023/02/22 06:52:33;;;;;;;13.2;5.6;;;;;;;2.51;70.75195;935.1836;;;;
2023/02/22 06:55:00;;;;;;;12.6;5.6;;;;;;;2.56;70.53711;935.2095;;;;
2023/02/22 06:57:25;;;;;;;10.4;4.5;;;;;;;2.58;70.51953;935.1941;;;;
2023/02/22 06:59:50;;;;;;;7.4;4.9;;;;;;;2.65;69.92383;935.1117;;;;
2023/02/22 07:02:20;;;;;;;9;5.4;;;;;;;2.74;69.80469;935.1853;;;;
2023/02/22 07:04:51;;;;;;;9.8;5.5;;;;;;;2.84;69.78711;935.2023;;;;
2023/02/22 07:07:24;;;;;;;9.7;5;;;;;;;3.21;68.74805;935.1653;;;;
2023/02/22 07:09:56;;;;;;;10;5.1;;;;;;;3.64;67.34473;935.2484;;;;
2023/02/22 07:12:27;;;;;;;12.9;7.2;;;;;;;3.81;67.0127;935.2522;;;;
2023/02/22 07:14:56;;;;;;;10;6.1;;;;;;;3.98;65.29688;935.2587;;;;
2023/02/22 07:17:21;;;;;;;18.4;7.5;;;;;;;4.17;65.02148;935.2417;;;;
2023/02/22 07:19:46;;;;;;;11.8;5.8;;;;;;;4.46;63.77148;935.2241;;;;
2023/02/22 07:22:14;;;;;;;13.2;5.7;;;;;;;4.67;63.4209;935.2019;;;;
2023/02/22 07:24:40;;;;;;;11.5;5.1;;;;;;;5;62.15039;935.1647;;;;
2023/02/22 07:27:07;;;;;;;11.7;5.1;;;;;;;5.45;60.99902;935.1473;;;;
2023/02/22 07:29:34;;;;;;;10.5;4.2;;;;;;;6.25;58.16211;935.1022;;;;
2023/02/22 07:32:03;;;;;;;16.3;4.7;;;;;;;6.75;56.69043;935.095;;;;
2023/02/22 07:34:28;;;;;;;9;4.2;;;;;;;7.26;53.9248;935.0549;;;;
2023/02/22 07:36:55;;;;;;;12.1;4.4;;;;;;;7.15;54.33008;935.074;;;;
2023/02/22 07:43:00;;;;;;;16.6;8.2;;;;;;;6.7;54.54395;935.0189;;;;
2023/02/22 07:45:32;;;;;;;13;6.4;;;;;;;7.27;53.8584;934.9807;;;;
2023/02/22 07:48:00;;;;;;;14.3;5.4;;;;;;;7.88;51.99512;934.986;;;;
2023/02/22 07:50:26;;;;;;;5.8;3.4;;;;;;;8.3;48.89844;934.8867;;;;
2023/02/22 07:52:54;;;;;;;5.6;2.8;;;;;;;8.24;48.07422;934.8931;;;;
2023/02/22 07:55:21;;;;;;;10.3;3.4;;;;;;;8.93;47.86719;934.9027;;;;
2023/02/22 07:57:52;;;;;;;25.9;4.9;;;;;;;8.58;47.93066;934.8842;;;;
2023/02/22 08:00:22;;;;;;;6.4;2.9;;;;;;;8.81;47.23926;934.8515;;;;
2023/02/22 08:02:52;;;;;;;12.4;3.6;;;;;;;9;47.56836;934.8105;;;;
2023/02/22 08:05:17;;;;;;;13.2;3.4;;;;;;;9.32;46.72656;934.7885;;;;
2023/02/22 08:07:50;;;;;;;9.8;3.6;;;;;;;9.68;45.66016;934.7131;;;;
2023/02/22 08:10:17;;;;;;;7.1;2.9;;;;;;;10.52;42.85938;934.7126;;;;
2023/02/22 08:12:44;;;;;;;5.6;2.3;;;;;;;10.39;43.15527;934.6641;;;;
2023/02/22 08:15:10;;;;;;;5.3;2.1;;;;;;;10.27;43.72559;934.7216;;;;
2023/02/22 08:17:40;;;;;;;9;2.3;;;;;;;10.61;43.17773;934.7332;;;;
2023/02/22 08:20:11;;;;;;;6;2.4;;;;;;;10.69;42.68262;934.6896;;;;
2023/02/22 08:22:42;;;;;;;5.8;2.6;;;;;;;10.61;42.68555;934.6994;;;;
2023/02/22 08:25:16;;;;;;;3.4;1.9;;;;;;;11.34;41.48926;934.6534;;;;
2023/02/22 08:27:40;;;;;;;5.7;2;;;;;;;11.58;41.13379;934.6281;;;;
2023/02/22 08:30:10;;;;;;;10.6;2.8;;;;;;;12.27;40.06445;934.5917;;;;
2023/02/22 08:32:36;;;;;;;5.2;2.1;;;;;;;12.76;38.45605;934.5607;;;;
2023/02/22 08:35:00;;;;;;;3.3;1.6;;;;;;;13.1;36.74219;934.505;;;;
2023/02/22 08:37:28;;;;;;;5.9;1.6;;;;;;;13.73;35.37891;934.4758;;;;
2023/02/22 08:39:54;;;;;;;6.1;1.9;;;;;;;14.48;34.04688;934.4704;;;;
2023/02/22 08:42:24;;;;;;;7.5;2.4;;;;;;;15.51;31.28613;934.4113;;;;
2023/02/22 08:44:53;;;;;;;3.1;1.4;;;;;;;15.11;31.43066;934.4086;;;;
2023/02/22 08:47:18;;;;;;;3.2;1.4;;;;;;;14.99;31.9873;934.3594;;;;
2023/02/22 08:49:43;;;;;;;6.8;1.5;;;;;;;15.07;31.86523;934.3762;;;;
2023/02/22 08:52:13;;;;;;;4.7;2;;;;;;;15.66;31.49316;934.3354;;;;
2023/02/22 08:54:38;;;;;;;3.3;1.4;;;;;;;15.85;30.43164;934.3592;;;;
2023/02/22 08:57:08;;;;;;;3.8;1.2;;;;;;;17.88;28.34277;934.2548;;;;
2023/02/22 08:59:36;;;;;;;2.3;1.1;;;;;;;19.66;25.26367;934.2349;;;;
2023/02/22 09:02:02;;;;;;;1.4;0.7;;;;;;;20.76;24.54395;934.2109;;;;
2023/02/22 09:04:27;;;;;;;1.2;1;;;;;;;21.88;23.02441;934.123;;;;
2023/02/22 09:06:55;;;;;;;1;0.9;;;;;;;22.48;22.83203;934.0981;;;;
2023/02/22 09:09:20;;;;;;;5.3;1.2;;;;;;;23.01;21.77832;934.1039;;;;
2023/02/22 09:11:46;;;;;;;3;1.5;;;;;;;23.04;21.3457;934.1093;;;;
2023/02/22 09:14:13;;;;;;;2.8;0.9;;;;;;;23.75;20.36719;934.1155;;;;
2023/02/22 09:16:40;;;;;;;1.8;0.8;;;;;;;24.31;20.26367;934.0302;;;;
2023/02/22 09:19:05;;;;;;;2.3;0.7;;;;;;;22.53;21.37988;934.0173;;;;
2023/02/22 09:21:33;;;;;;;5.8;1.2;;;;;;;22.85;21.64063;933.9425;;;;
2023/02/22 09:24:07;;;;;;;2.6;0.9;;;;;;;22.37;20.84375;933.947;;;;
2023/02/22 09:26:27;;;;;;;2.6;1;;;;;;;20.13;22.60645;933.9481;;;;
2023/02/22 09:28:55;;;;;;;1.7;0.7;;;;;;;20.14;23.20215;933.9476;;;;
2023/02/22 09:31:20;;;;;;;1.1;0.8;;;;;;;20.16;23.08594;933.8331;;;;
2023/02/22 09:33:48;;;;;;;1.7;0.7;;;;;;;17.91;25.0127;933.8836;;;;
2023/02/22 09:36:13;;;;;;;1.9;0.8;;;;;;;18.67;24.49805;933.8577;;;;
2023/02/22 09:38:42;;;;;;;2.9;1.3;;;;;;;19.13;24.55762;933.8116;;;;
2023/02/22 09:41:13;;;;;;;3.6;0.9;;;;;;;18.85;24.34473;933.7753;;;;
2023/02/22 09:43:37;;;;;;;3;1.1;;;;;;;18.17;25.30566;933.7368;;;;
2023/02/22 09:46:05;;;;;;;2.1;0.9;;;;;;;19.45;24.2373;933.7385;;;;
2023/02/22 09:48:31;;;;;;;1.6;0.8;;;;;;;18.43;24.85547;933.7083;;;;
2023/02/22 09:50:56;;;;;;;3.3;0.9;;;;;;;19.38;25.09668;933.6741;;;;
2023/02/22 09:53:28;;;;;;;1.1;1;;;;;;;18.13;24.80469;933.6998;;;;
2023/02/22 09:55:49;;;;;;;2.4;1;;;;;;;18.17;25.8291;933.6584;;;;
2023/02/22 09:58:15;;;;;;;4.4;1.3;;;;;;;18.51;25.60449;933.6407;;;;
2023/02/22 10:00:42;;;;;;;3;1.2;;;;;;;18.78;25.96973;933.5948;;;;
2023/02/22 10:03:07;;;;;;;2.8;0.9;;;;;;;19.53;23.93945;933.6092;;;;
2023/02/22 10:05:36;;;;;;;3.1;1.4;;;;;;;19.67;23.75977;933.5865;;;;
2023/02/22 10:07:58;;;;;;;3.3;1.6;;;;;;;20.3;23.87598;933.5641;;;;
2023/02/22 10:10:23;;;;;;;3.8;1.1;;;;;;;20.4;23.78809;933.5508;;;;
2023/02/22 10:12:49;;;;;;;3.5;1.2;;;;;;;19.85;24.31836;933.558;;;;
2023/02/22 10:15:18;;;;;;;4.6;1;;;;;;;19.39;24.54883;933.5131;;;;
2023/02/22 10:17:48;;;;;;;2.2;1.3;;;;;;;19.24;25.00684;933.4799;;;;
2023/02/22 10:20:15;;;;;;;2.4;1;;;;;;;19.65;24.37695;933.5597;;;;
2023/02/22 10:22:44;;;;;;;1.7;0.9;;;;;;;19.99;24.34863;933.4783;;;;
2023/02/22 10:25:12;;;;;;;2.4;0.9;;;;;;;19.32;24.32422;933.5364;;;;
2023/02/22 10:27:37;;;;;;;1.3;1;;;;;;;19.09;25.47559;933.541;;;;
2023/02/22 10:30:02;;;;;;;1.3;0.8;;;;;;;19.17;24.28027;933.5377;;;;
2023/02/22 10:32:27;;;;;;;2.1;0.8;;;;;;;19.59;24.62988;933.4668;;;;
2023/02/22 10:34:53;;;;;;;1.5;1;;;;;;;19.77;24.66406;933.52;;;;
2023/02/22 10:37:18;;;;;;;2.4;1.3;;;;;;;19.55;26.14355;933.5214;;;;
2023/02/22 10:39:46;;;;;;;2.4;1.1;;;;;;;19.58;27.36816;933.481;;;;
2023/02/22 10:42:14;;;;;;;3;1.2;;;;;;;20.03;26.46387;933.4462;;;;
2023/02/22 10:44:43;;;;;;;2.5;1.2;;;;;;;20.46;25.71875;933.4595;;;;
2023/02/22 10:47:08;;;;;;;1.9;1.2;;;;;;;21;25.67969;933.3964;;;;
2023/02/22 10:49:35;;;;;;;1.7;0.9;;;;;;;20.67;24.9707;933.3478;;;;
2023/02/22 10:52:01;;;;;;;2.4;1.1;;;;;;;21.13;24.17773;933.2742;;;;
2023/02/22 10:54:26;;;;;;;2.7;0.9;;;;;;;21.41;23.25684;933.295;;;;
2023/02/22 10:56:51;;;;;;;1.4;0.6;;;;;;;21.72;23.30859;933.2878;;;;
2023/02/22 10:59:18;;;;;;;1.7;0.7;;;;;;;21.68;23.63477;933.2319;;;;
2023/02/22 11:01:43;;;;;;;1.7;0.9;;;;;;;21.65;24.05371;933.2277;;;;
2023/02/22 11:04:12;;;;;;;2.8;1.1;;;;;;;21.67;24.24316;933.2339;;;;
2023/02/22 11:06:43;;;;;;;2.8;1.1;;;;;;;22.66;22.94727;933.2114;;;;
2023/02/22 11:09:09;;;;;;;1.6;0.8;;;;;;;23.16;22.36133;933.1976;;;;
2023/02/22 11:11:35;;;;;;;1.6;0.7;;;;;;;23.95;20.24707;933.1646;;;;
2023/02/22 11:14:01;;;;;;;1.4;0.8;;;;;;;23.8;21.04004;933.1498;;;;
2023/02/22 11:16:34;;;;;;;1.3;0.6;;;;;;;23.12;20.38574;933.1272;;;;
2023/02/22 11:18:59;;;;;;;1.2;1;;;;;;;22.74;21.58887;933.0804;;;;
2023/02/22 11:21:27;;;;;;;2.6;1.1;;;;;;;22.29;22.41211;933.0125;;;;
2023/02/22 11:23:52;;;;;;;1.6;0.9;;;;;;;21.84;22.08398;933.0442;;;;
2023/02/22 11:26:19;;;;;;;3.6;1.2;;;;;;;22.86;21.75977;932.9938;;;;
2023/02/22 11:28:48;;;;;;;1.9;1.4;;;;;;;23.45;21.29395;932.9926;;;;
2023/02/22 11:31:08;;;;;;;2.1;1.3;;;;;;;23.7;20.97656;932.9465;;;;
2023/02/22 11:33:33;;;;;;;2;1.1;;;;;;;24.15;20.84473;932.9489;;;;
2023/02/22 11:35:59;;;;;;;1.7;1.1;;;;;;;25.26;19.62109;932.9015;;;;
2023/02/22 11:38:30;;;;;;;2.2;0.8;;;;;;;24.73;19.75195;932.8069;;;;
2023/02/22 11:40:55;;;;;;;1.9;1.3;;;;;;;23.41;21.10449;932.8867;;;;
2023/02/22 11:43:20;;;;;;;1.2;0.8;;;;;;;23.05;21.76855;932.8414;;;;
2023/02/22 11:45:49;;;;;;;1.2;0.9;;;;;;;21.3;22.8418;932.7587;;;;
2023/02/22 11:48:19;;;;;;;1.3;0.8;;;;;;;20.91;22.82227;932.7358;;;;
2023/02/22 11:50:45;;;;;;;2.3;0.7;;;;;;;20.7;23.14941;932.7512;;;;
2023/02/22 11:53:09;;;;;;;1.1;0.6;;;;;;;20.5;22.73047;932.7582;;;;
2023/02/22 11:55:37;;;;;;;1.5;0.7;;;;;;;20.49;23.95605;932.753;;;;
2023/02/22 11:58:04;;;;;;;1.7;0.6;;;;;;;20.1;24.18066;932.7342;;;;
2023/02/22 12:00:28;;;;;;;2.1;0.8;;;;;;;20.09;25.47461;932.665;;;;
2023/02/22 12:02:54;;;;;;;1.7;0.7;;;;;;;19.84;25.25;932.7489;;;;
2023/02/22 12:05:24;;;;;;;0.8;0.7;;;;;;;19.68;25.61426;932.7081;;;;
2023/02/22 12:07:47;;;;;;;2.9;0.8;;;;;;;19.12;26.75781;932.7004;;;;
2023/02/22 12:10:17;;;;;;;0.9;0.7;;;;;;;18.91;27.74707;932.6287;;;;
2023/02/22 12:12:45;;;;;;;1.3;0.8;;;;;;;18.32;28.27832;932.6319;;;;
2023/02/22 12:15:17;;;;;;;1.3;0.8;;;;;;;18.73;27.82813;932.6333;;;;
2023/02/22 12:17:48;;;;;;;2.3;1;;;;;;;19.28;26.93164;932.647;;;;
2023/02/22 12:20:23;;;;;;;1.8;0.9;;;;;;;19.32;26.46777;932.632;;;;
2023/02/22 12:22:44;;;;;;;1.9;1;;;;;;;18.74;27.5498;932.6127;;;;
2023/02/22 12:25:13;;;;;;;1.4;1;;;;;;;18.78;27.41309;932.5897;;;;
2023/02/22 12:27:34;;;;;;;2.2;1.1;;;;;;;18.62;28.01855;932.5321;;;;
2023/02/22 12:30:03;;;;;;;1.2;1;;;;;;;18.37;28.21191;932.5828;;;;
2023/02/22 12:32:30;;;;;;;1.8;1.1;;;;;;;18.22;29.36523;932.4558;;;;
2023/02/22 12:34:56;;;;;;;2.1;1.2;;;;;;;18.5;28.13965;932.5275;;;;
2023/02/22 12:37:21;;;;;;;2.1;1.3;;;;;;;19.04;28.51172;932.4998;;;;
2023/02/22 12:39:50;;;;;;;3.7;1.6;;;;;;;19.19;28.20605;932.4425;;;;
2023/02/22 12:42:16;;;;;;;4.8;1.5;;;;;;;19.34;27.7627;932.4547;;;;
2023/02/22 12:44:41;;;;;;;3.3;1.4;;;;;;;20.63;26.56934;932.3404;;;;
2023/02/22 12:47:06;;;;;;;2.7;1.6;;;;;;;21.26;26.47852;932.4022;;;;
2023/02/22 12:49:31;;;;;;;2.7;1.6;;;;;;;21.76;26.67188;932.3705;;;;
2023/02/22 12:51:56;;;;;;;1.7;1.1;;;;;;;22.47;26.05762;932.3636;;;;
2023/02/22 12:54:24;;;;;;;3.4;1.2;;;;;;;23.79;24.24121;932.3149;;;;
2023/02/22 12:56:48;;;;;;;1.4;1.1;;;;;;;24.7;23.20605;932.2978;;;;
2023/02/22 12:59:13;;;;;;;3.2;1.4;;;;;;;24.6;22.66992;932.2473;;;;
2023/02/22 13:01:39;;;;;;;2.2;1.1;;;;;;;23.86;23.14941;932.238;;;;
2023/02/22 13:04:04;;;;;;;1.5;1.1;;;;;;;22.81;23.45996;932.2282;;;;
2023/02/22 13:06:29;;;;;;;1.6;1.3;;;;;;;22.36;24.09277;932.1728;;;;
2023/02/22 13:08:57;;;;;;;1.1;1;;;;;;;21.02;26.20703;932.1545;;;;
2023/02/22 13:11:24;;;;;;;2;1.1;;;;;;;20.47;26.68848;932.1633;;;;
2023/02/22 13:13:51;;;;;;;2.4;1.3;;;;;;;20.39;26.20508;932.1714;;;;
2023/02/22 13:16:15;;;;;;;2.1;1.4;;;;;;;20.39;26.11133;932.1458;;;;
2023/02/22 13:18:39;;;;;;;3.1;1.5;;;;;;;19.94;27.4375;932.183;;;;
2023/02/22 13:21:07;;;;;;;1.7;1.3;;;;;;;19.3;28.25977;932.1653;;;;
2023/02/22 13:23:32;;;;;;;4;1.7;;;;;;;18.81;29.26465;932.1749;;;;
2023/02/22 13:25:57;;;;;;;2.8;1.5;;;;;;;18.72;28.89746;932.1635;;;;
2023/02/22 13:28:22;;;;;;;2.7;1.6;;;;;;;18.56;29.5498;932.1758;;;;
2023/02/22 13:30:47;;;;;;;3;1.6;;;;;;;18.51;29.73242;932.1693;;;;
2023/02/22 13:33:47;;;;;;;3.8;2.1;;;;;;;18.5;29.9541;932.2195;;;;
2023/02/22 13:36:13;;;;;;;2.4;1.7;;;;;;;18.64;29.73047;932.1536;;;;
2023/02/22 13:38:38;;;;;;;4.1;1.7;;;;;;;18.91;29.36426;932.1195;;;;
2023/02/22 13:41:06;;;;;;;2.7;1.3;;;;;;;19.06;29.5957;932.1191;;;;
2023/02/22 13:43:32;;;;;;;5.2;2;;;;;;;20.53;28.70117;932.0616;;;;
2023/02/22 13:45:58;;;;;;;12;5;;;;;;;21.1;27.93164;932.0583;;;;
2023/02/22 13:48:22;;;;;;;9.8;5.1;;;;;;;21.48;27.81445;932.0677;;;;
2023/02/22 13:50:55;;;;;;;4.9;2.5;;;;;;;21.84;26.77051;932.0259;;;;
2023/02/22 13:53:23;;;;;;;6.6;3.2;;;;;;;21.35;28.12207;932.0203;;;;
2023/02/22 13:55:48;;;;;;;4.2;2;;;;;;;19.79;30.13379;931.9514;;;;
2023/02/22 13:58:14;;;;;;;1.7;1.3;;;;;;;19.33;30.67383;932.132;;;;
2023/02/22 14:00:38;;;;;;;3.4;1.5;;;;;;;19.69;29.49805;931.9467;;;;
2023/02/22 14:03:09;;;;;;;1.9;1.4;;;;;;;20.08;28.73047;932.027;;;;
2023/02/22 14:05:40;;;;;;;2.6;1.4;;;;;;;20.48;28.74512;931.9835;;;;
2023/02/22 14:08:05;;;;;;;3.2;1.4;;;;;;;21.58;27.62109;932.0183;;;;
2023/02/22 14:10:33;;;;;;;2;1.3;;;;;;;22.7;26.75195;932.0436;;;;
2023/02/22 14:13:03;;;;;;;3.7;1.4;;;;;;;24.63;23.79199;931.932;;;;
2023/02/22 14:15:27;;;;;;;4.1;1.5;;;;;;;23.75;25.45117;931.9254;;;;
2023/02/22 14:17:52;;;;;;;2.1;1.3;;;;;;;24.28;24.33789;931.918;;;;
2023/02/22 14:20:28;;;;;;;2.1;1.4;;;;;;;26.44;21.91113;931.8997;;;;
2023/02/22 14:22:53;;;;;;;3.3;1.6;;;;;;;24.86;23.62598;931.8401;;;;
2023/02/22 14:25:18;;;;;;;1.9;1.2;;;;;;;24.41;23.63867;931.8474;;;;
2023/02/22 14:27:48;;;;;;;3.8;1.5;;;;;;;24.45;23.94629;931.8639;;;;
2023/02/22 14:30:13;;;;;;;2.5;1.6;;;;;;;24.96;23.5498;931.8391;;;;
2023/02/22 14:32:38;;;;;;;2.6;1.4;;;;;;;25.81;22.27051;931.8243;;;;
2023/02/22 14:35:09;;;;;;;2.6;1.3;;;;;;;26.02;22.35156;931.8313;;;;
2023/02/22 14:37:38;;;;;;;2.3;1.1;;;;;;;26.07;22.02344;931.7816;;;;
2023/02/22 14:40:17;;;;;;;2.5;1.3;;;;;;;26.57;21.64453;931.8025;;;;
2023/02/22 14:42:42;;;;;;;1.6;1.3;;;;;;;26.41;22.38281;931.7621;;;;
2023/02/22 14:45:10;;;;;;;2.8;1.7;;;;;;;26.72;21.8418;931.7396;;;;
2023/02/22 14:47:38;;;;;;;2.4;1.4;;;;;;;24.49;24.34961;931.8184;;;;
2023/02/22 14:50:01;;;;;;;2.5;1.5;;;;;;;24.13;24.6123;931.8334;;;;
2023/02/22 14:52:31;;;;;;;3.1;1.4;;;;;;;24.16;24.17871;931.7775;;;;